createdAt,value
2024-05-09T00:00:44.815Z,11.24
2024-05-09T00:03:13.020Z,11.66
2024-05-09T00:05:41.551Z,11.45
2024-05-09T00:08:10.553Z,11.75
2024-05-09T00:10:39.758Z,11.77
2024-05-09T00:13:09.378Z,11.79
2024-05-09T00:15:37.546Z,11.57
2024-05-09T00:18:07.367Z,11.62
2024-05-09T00:20:39.635Z,11.63
2024-05-09T00:23:11.990Z,11.43
2024-05-09T00:25:45.129Z,11.51
2024-05-09T00:28:13.842Z,11.42
2024-05-09T00:30:42.576Z,11.35
2024-05-09T00:33:11.607Z,11.52
2024-05-09T00:35:40.234Z,11.24
2024-05-09T00:38:08.417Z,11.41
2024-05-09T00:40:42.237Z,11.40
2024-05-09T00:43:12.712Z,11.30
2024-05-09T00:45:41.745Z,11.09
2024-05-09T00:48:10.597Z,11.18
2024-05-09T00:50:41.788Z,11.05
2024-05-09T00:53:14.315Z,11.16
2024-05-09T00:55:42.142Z,11.07
2024-05-09T00:58:11.141Z,10.97
2024-05-09T01:00:40.959Z,10.97
2024-05-09T01:03:12.105Z,10.73
2024-05-09T01:05:43.000Z,11.09
2024-05-09T01:08:11.679Z,10.98
2024-05-09T01:10:42.812Z,10.91
2024-05-09T01:13:13.126Z,10.75
2024-05-09T01:15:41.115Z,10.57
2024-05-09T01:18:11.273Z,10.25
2024-05-09T01:20:43.330Z,10.64
2024-05-09T01:23:15.133Z,10.56
2024-05-09T01:25:45.302Z,10.32
2024-05-09T01:28:14.266Z,10.44
2024-05-09T01:30:42.317Z,10.46
2024-05-09T01:33:11.898Z,10.43
2024-05-09T01:35:42.341Z,10.28
2024-05-09T01:38:17.421Z,10.50
2024-05-09T01:40:46.315Z,10.49
2024-05-09T01:43:14.357Z,10.23
2024-05-09T01:45:42.454Z,10.13
2024-05-09T01:48:11.201Z,10.29
2024-05-09T01:50:42.191Z,10.20
2024-05-09T01:53:12.623Z,10.33
2024-05-09T01:55:41.112Z,10.22
2024-05-09T01:58:09.006Z,10.11
2024-05-09T02:00:41.156Z,10.20
2024-05-09T02:03:14.578Z,10.06
2024-05-09T02:05:45.746Z,10.05
2024-05-09T02:08:17.717Z,10.27
2024-05-09T02:10:47.465Z,10.09
2024-05-09T02:13:16.191Z,9.98
2024-05-09T02:15:44.531Z,10.01
2024-05-09T02:18:12.987Z,9.93
2024-05-09T02:20:41.917Z,9.91
2024-05-09T02:23:10.544Z,10.10
2024-05-09T02:25:39.074Z,10.18
2024-05-09T02:28:07.140Z,10.16
2024-05-09T02:30:39.728Z,10.18
2024-05-09T02:33:11.844Z,9.94
2024-05-09T02:35:42.591Z,10.03
2024-05-09T02:38:11.473Z,10.04
2024-05-09T02:40:40.131Z,10.13
2024-05-09T02:43:10.368Z,10.05
2024-05-09T02:45:40.325Z,9.92
2024-05-09T02:48:12.804Z,10.10
2024-05-09T02:50:42.033Z,10.01
2024-05-09T02:53:11.486Z,9.94
2024-05-09T02:55:39.305Z,10.14
2024-05-09T02:58:10.100Z,10.39
2024-05-09T03:00:41.273Z,10.08
2024-05-09T03:03:13.462Z,10.24
2024-05-09T03:05:44.058Z,10.17
2024-05-09T03:08:12.300Z,10.10
2024-05-09T03:10:40.504Z,10.25
2024-05-09T03:13:08.881Z,10.07
2024-05-09T03:15:37.133Z,10.08
2024-05-09T03:18:06.332Z,10.46
2024-05-09T03:20:36.248Z,10.44
2024-05-09T03:23:06.349Z,10.45
2024-05-09T03:25:34.738Z,10.51
2024-05-09T03:28:02.887Z,10.40
2024-05-09T03:30:39.577Z,10.36
2024-05-09T03:33:17.692Z,10.58
2024-05-09T03:35:47.696Z,10.53
2024-05-09T03:38:15.979Z,10.67
2024-05-09T03:40:48.046Z,10.86
2024-05-09T03:43:16.599Z,10.57
2024-05-09T03:45:44.591Z,10.65
2024-05-09T03:48:13.345Z,10.74
2024-05-09T03:50:41.700Z,10.67
2024-05-09T03:53:13.407Z,11.01
2024-05-09T03:55:41.594Z,10.92
2024-05-09T03:58:09.513Z,11.14
2024-05-09T04:00:39.905Z,11.16
2024-05-09T04:03:11.876Z,10.90
2024-05-09T04:05:42.615Z,11.37
2024-05-09T04:08:15.256Z,11.58
2024-05-09T04:10:43.713Z,11.37
2024-05-09T04:13:11.718Z,11.38
2024-05-09T04:15:39.839Z,11.72
2024-05-09T04:18:07.980Z,11.51
2024-05-09T04:20:39.553Z,11.61
2024-05-09T04:23:13.714Z,11.82
2024-05-09T04:25:45.112Z,12.12
2024-05-09T04:28:14.444Z,11.93
2024-05-09T04:30:43.096Z,12.42
2024-05-09T04:33:13.308Z,12.45
2024-05-09T04:35:45.682Z,12.68
2024-05-09T04:38:14.560Z,12.88
2024-05-09T04:40:43.511Z,13.18
2024-05-09T04:43:16.178Z,13.19
2024-05-09T04:45:44.554Z,13.22
2024-05-09T04:48:12.613Z,13.21
2024-05-09T04:50:40.826Z,13.40
2024-05-09T04:53:10.357Z,13.51
2024-05-09T04:55:40.458Z,13.63
2024-05-09T04:58:09.274Z,13.53
2024-05-09T05:00:39.710Z,13.63
2024-05-09T05:03:11.546Z,13.70
2024-05-09T05:05:41.883Z,13.95
2024-05-09T05:08:13.874Z,14.12
2024-05-09T05:10:42.773Z,13.91
2024-05-09T05:13:23.865Z,14.32
2024-05-09T05:15:55.763Z,14.36
2024-05-09T05:18:25.045Z,14.39
2024-05-09T05:20:53.047Z,14.38
2024-05-09T05:23:21.781Z,14.01
2024-05-09T05:25:50.201Z,14.23
2024-05-09T05:28:18.232Z,13.98
2024-05-09T05:30:46.232Z,14.06
2024-05-09T05:33:15.127Z,14.07
2024-05-09T05:35:43.611Z,14.04
2024-05-09T05:38:11.655Z,14.31
2024-05-09T05:40:40.389Z,14.22
2024-05-09T05:43:10.439Z,13.79
2024-05-09T05:45:39.134Z,14.13
2024-05-09T05:48:08.070Z,14.37
2024-05-09T05:50:38.071Z,14.16
2024-05-09T05:53:08.028Z,14.24
2024-05-09T05:55:37.347Z,14.60
2024-05-09T05:58:05.307Z,14.75
2024-05-09T06:00:38.887Z,14.83
2024-05-09T06:03:09.671Z,14.99
2024-05-09T06:05:44.104Z,14.92
2024-05-09T06:08:12.634Z,15.07
2024-05-09T06:10:41.775Z,14.87
2024-05-09T06:13:14.009Z,14.65
2024-05-09T06:15:43.036Z,15.13
2024-05-09T06:18:12.473Z,14.97
2024-05-09T06:20:43.136Z,15.42
2024-05-09T06:23:12.838Z,15.44
2024-05-09T06:25:40.703Z,15.41
2024-05-09T06:28:08.580Z,15.10
2024-05-09T06:30:40.670Z,15.31
2024-05-09T06:33:12.499Z,15.39
2024-05-09T06:35:43.086Z,15.39
2024-05-09T06:38:11.683Z,15.31
2024-05-09T06:40:41.995Z,15.50
2024-05-09T06:43:15.393Z,15.55
2024-05-09T06:45:46.190Z,15.38
2024-05-09T06:48:14.449Z,15.59
2024-05-09T06:50:42.632Z,15.41
2024-05-09T06:53:10.677Z,15.66
2024-05-09T06:55:38.756Z,15.83
2024-05-09T06:58:07.068Z,15.87
2024-05-09T07:00:39.529Z,15.61
2024-05-09T07:03:11.138Z,15.78
2024-05-09T07:05:40.273Z,15.79
2024-05-09T07:08:08.428Z,16.59
2024-05-09T07:10:37.171Z,18.17
2024-05-09T07:13:11.765Z,18.81
2024-05-09T07:15:39.781Z,20.47
2024-05-09T07:18:18.284Z,21.47
2024-05-09T07:20:49.009Z,23.67
2024-05-09T07:23:18.005Z,23.46
2024-05-09T07:25:46.415Z,25.71
2024-05-09T07:28:16.102Z,26.23
2024-05-09T07:30:44.306Z,25.57
2024-05-09T07:33:22.927Z,25.60
2024-05-09T07:35:52.582Z,26.47
2024-05-09T07:38:20.844Z,26.75
2024-05-09T07:40:49.438Z,28.18
2024-05-09T07:43:17.336Z,28.55
2024-05-09T07:45:52.427Z,26.14
2024-05-09T07:52:38.355Z,25.26
2024-05-09T07:53:47.145Z,25.54
2024-05-09T07:56:19.417Z,26.56
2024-05-09T07:58:50.040Z,27.78
2024-05-09T08:01:17.724Z,27.92
2024-05-09T08:03:46.043Z,28.50
2024-05-09T08:06:13.778Z,27.12
2024-05-09T08:08:41.336Z,26.75
2024-05-09T08:11:09.319Z,27.78
2024-05-09T08:13:37.517Z,27.60
2024-05-09T08:16:05.983Z,27.64
2024-05-09T08:18:34.166Z,26.34
2024-05-09T08:21:02.183Z,26.26
2024-05-09T08:23:30.207Z,26.56
2024-05-09T08:25:58.160Z,26.12
2024-05-09T08:28:26.028Z,25.46
2024-05-09T08:30:54.141Z,24.15
2024-05-09T08:33:22.311Z,25.03
2024-05-09T08:35:49.948Z,26.52
2024-05-09T08:38:18.200Z,25.94
2024-05-09T08:40:46.283Z,26.55
2024-05-09T08:43:14.133Z,25.73
2024-05-09T08:45:43.967Z,25.10
2024-05-09T08:48:15.230Z,26.00
2024-05-09T08:50:45.385Z,26.30
2024-05-09T08:53:15.460Z,25.75
2024-05-09T08:55:44.743Z,25.45
2024-05-09T08:58:17.125Z,25.23
2024-05-09T09:00:46.282Z,24.64
2024-05-09T09:03:18.683Z,23.94
2024-05-09T09:05:53.155Z,24.23
2024-05-09T09:08:20.805Z,23.99
2024-05-09T09:10:48.914Z,23.71
2024-05-09T09:13:17.004Z,24.23
2024-05-09T09:15:49.756Z,24.84
2024-05-09T09:18:18.547Z,24.62
2024-05-09T09:20:46.888Z,24.37
2024-05-09T09:23:15.181Z,24.37
2024-05-09T09:25:43.234Z,23.22
2024-05-09T09:28:11.357Z,23.00
2024-05-09T09:30:42.861Z,23.01
2024-05-09T09:33:11.592Z,22.49
2024-05-09T09:35:40.039Z,22.15
2024-05-09T09:38:08.370Z,21.88
2024-05-09T09:40:40.802Z,21.71
2024-05-09T09:43:14.977Z,21.44
2024-05-09T09:45:43.835Z,21.85
2024-05-09T09:48:12.576Z,22.18
2024-05-09T09:50:40.711Z,22.18
2024-05-09T09:53:08.579Z,21.76
2024-05-09T09:55:36.999Z,22.00
2024-05-09T09:58:06.484Z,21.76
2024-05-09T10:00:35.973Z,21.84
2024-05-09T10:03:03.777Z,21.72
2024-05-09T10:05:33.424Z,21.76
2024-05-09T10:08:06.186Z,21.21
2024-05-09T10:10:36.184Z,21.09
2024-05-09T10:13:07.660Z,20.65
2024-05-09T10:15:46.110Z,20.88
2024-05-09T10:18:15.032Z,21.28
2024-05-09T10:20:43.658Z,21.35
2024-05-09T10:23:27.316Z,21.68
2024-05-09T10:26:05.656Z,21.91
2024-05-09T10:28:38.081Z,21.68
2024-05-09T10:31:13.675Z,21.95
2024-05-09T10:33:52.342Z,21.70
2024-05-09T10:36:27.527Z,21.94
2024-05-09T10:38:56.075Z,21.79
2024-05-09T10:41:24.152Z,21.54
2024-05-09T10:43:52.286Z,21.59
2024-05-09T10:46:20.454Z,21.63
2024-05-09T10:48:50.242Z,21.65
2024-05-09T10:51:19.882Z,21.58
2024-05-09T10:53:48.232Z,21.51
2024-05-09T10:56:16.820Z,21.63
2024-05-09T10:58:45.297Z,21.60
2024-05-09T11:01:13.880Z,21.72
2024-05-09T11:03:42.265Z,21.62
2024-05-09T11:06:11.461Z,21.62
2024-05-09T11:08:39.594Z,21.60
2024-05-09T11:11:08.622Z,21.45
2024-05-09T11:13:38.158Z,21.19
2024-05-09T11:16:06.917Z,21.34
2024-05-09T11:18:38.280Z,21.42
2024-05-09T11:21:14.479Z,21.53
2024-05-09T11:23:42.416Z,21.65
2024-05-09T11:26:11.191Z,21.39
2024-05-09T11:28:39.162Z,21.01
2024-05-09T11:31:08.819Z,21.10
2024-05-09T11:33:41.084Z,21.18
2024-05-09T11:36:09.723Z,21.20
2024-05-09T11:38:38.054Z,21.27
2024-05-09T11:41:06.011Z,21.23
2024-05-09T11:43:33.991Z,21.36
2024-05-09T11:46:03.665Z,21.23
2024-05-09T11:48:32.516Z,21.04
2024-05-09T11:51:00.677Z,20.68
2024-05-09T11:53:28.463Z,20.72
2024-05-09T11:55:56.296Z,20.52
2024-05-09T11:58:24.118Z,20.77
2024-05-09T12:00:52.290Z,20.73
2024-05-09T12:03:20.923Z,20.80
2024-05-09T12:05:49.020Z,20.84
2024-05-09T12:08:16.914Z,20.96
2024-05-09T12:10:45.030Z,20.76
2024-05-09T12:13:13.048Z,20.75
2024-05-09T12:15:41.105Z,20.62
2024-05-09T12:18:09.211Z,20.65
2024-05-09T12:20:39.598Z,20.71
2024-05-09T12:23:09.983Z,20.68
2024-05-09T12:25:39.487Z,20.80
2024-05-09T12:28:08.284Z,20.90
2024-05-09T12:30:41.023Z,20.63
2024-05-09T12:33:11.306Z,20.78
2024-05-09T12:35:40.612Z,20.67
2024-05-09T12:38:08.801Z,20.64
2024-05-09T12:40:38.704Z,20.63
2024-05-09T12:43:08.582Z,20.66
2024-05-09T12:45:38.134Z,20.66
2024-05-09T12:48:08.676Z,20.63
2024-05-09T12:50:38.702Z,20.55
2024-05-09T12:53:06.518Z,20.64
2024-05-09T12:55:41.450Z,20.40
2024-05-09T12:58:17.555Z,20.43
2024-05-09T13:00:46.191Z,20.52
2024-05-09T13:03:14.918Z,20.66
2024-05-09T13:05:45.247Z,20.40
2024-05-09T13:08:13.807Z,20.18
2024-05-09T13:10:41.982Z,20.22
2024-05-09T13:13:10.613Z,20.29
2024-05-09T13:15:38.885Z,20.00
2024-05-09T13:18:07.245Z,20.23
2024-05-09T13:20:36.571Z,20.15
2024-05-09T13:23:06.226Z,20.31
2024-05-09T13:25:35.648Z,20.33
2024-05-09T13:28:04.701Z,20.25
2024-05-09T13:30:39.415Z,20.09
2024-05-09T13:33:11.400Z,20.06
2024-05-09T13:35:46.778Z,19.60
2024-05-09T13:38:18.775Z,19.74
2024-05-09T13:40:47.206Z,19.57
2024-05-09T13:43:15.444Z,20.00
2024-05-09T13:45:43.566Z,19.88
2024-05-09T13:48:11.695Z,20.12
2024-05-09T13:50:39.839Z,20.08
2024-05-09T13:53:08.515Z,19.96
2024-05-09T13:55:40.425Z,19.86
2024-05-09T13:58:09.333Z,19.41
2024-05-09T14:00:45.921Z,19.86
2024-05-09T14:03:18.434Z,19.39
2024-05-09T14:05:48.168Z,19.67
2024-05-09T14:08:17.975Z,19.73
2024-05-09T14:10:47.300Z,19.82
2024-05-09T14:13:15.726Z,19.42
2024-05-09T14:15:43.788Z,18.89
2024-05-09T14:18:13.829Z,19.54
2024-05-09T14:20:43.107Z,19.00
2024-05-09T14:23:11.231Z,18.87
2024-05-09T14:25:42.697Z,19.09
2024-05-09T14:28:12.975Z,19.14
2024-05-09T14:30:42.181Z,18.65
2024-05-09T14:33:11.631Z,18.90
2024-05-09T14:35:39.813Z,18.94
2024-05-09T14:38:08.861Z,18.73
2024-05-09T14:40:42.019Z,18.35
2024-05-09T14:43:12.880Z,18.47
2024-05-09T14:45:41.830Z,18.59
2024-05-09T14:48:10.591Z,18.40
2024-05-09T14:50:40.301Z,18.68
2024-05-09T14:53:10.303Z,18.28
2024-05-09T14:55:43.136Z,18.23
2024-05-09T14:58:13.550Z,18.59
2024-05-09T15:00:46.354Z,18.64
2024-05-09T15:03:19.982Z,18.57
2024-05-09T15:05:48.587Z,18.65
2024-05-09T15:08:17.563Z,18.54
2024-05-09T15:10:46.012Z,18.44
2024-05-09T15:13:16.519Z,18.00
2024-05-09T15:15:45.237Z,17.88
2024-05-09T15:18:14.480Z,18.02
2024-05-09T15:20:43.821Z,17.94
2024-05-09T15:23:11.895Z,17.55
2024-05-09T15:25:40.467Z,17.55
2024-05-09T15:28:08.669Z,17.75
2024-05-09T15:30:36.966Z,17.58
2024-05-09T15:33:06.397Z,17.53
2024-05-09T15:35:36.062Z,17.27
2024-05-09T15:38:04.773Z,17.36
2024-05-09T15:40:39.544Z,17.90
2024-05-09T15:43:10.466Z,17.73
2024-05-09T15:45:41.042Z,17.32
2024-05-09T15:48:10.655Z,17.43
2024-05-09T15:50:41.572Z,17.68
2024-05-09T15:53:12.169Z,17.30
2024-05-09T15:55:42.406Z,17.63
2024-05-09T15:58:10.570Z,17.69
2024-05-09T16:00:42.120Z,17.41
2024-05-09T16:03:12.868Z,17.51
2024-05-09T16:05:43.236Z,17.53
2024-05-09T16:08:12.335Z,17.66
2024-05-09T16:10:44.413Z,17.51
2024-05-09T16:13:14.049Z,17.26
2024-05-09T16:15:43.494Z,17.21
2024-05-09T16:18:11.584Z,17.39
2024-05-09T16:20:41.755Z,17.35
2024-05-09T16:23:11.453Z,16.90
2024-05-09T16:25:40.039Z,16.99
2024-05-09T16:28:10.495Z,17.11
2024-05-09T16:30:40.058Z,16.99
2024-05-09T16:33:09.022Z,17.06
2024-05-09T16:35:37.965Z,17.09
2024-05-09T16:38:08.902Z,17.05
2024-05-09T16:40:40.154Z,17.13
2024-05-09T16:43:10.434Z,17.04
2024-05-09T16:45:40.030Z,16.85
2024-05-09T16:48:08.449Z,16.80
2024-05-09T16:50:37.006Z,16.63
2024-05-09T16:53:06.152Z,16.81
2024-05-09T16:55:35.849Z,16.62
2024-05-09T16:58:04.993Z,16.29
2024-05-09T17:00:40.329Z,16.07
2024-05-09T17:03:15.838Z,16.11
2024-05-09T17:05:47.642Z,16.05
2024-05-09T17:08:17.064Z,16.23
2024-05-09T17:10:46.179Z,16.15
2024-05-09T17:13:14.709Z,16.17
2024-05-09T17:15:42.349Z,15.93
2024-05-09T17:18:10.359Z,15.94
2024-05-09T17:20:38.372Z,15.95
2024-05-09T17:23:13.612Z,15.92
2024-05-09T17:25:42.504Z,15.92
2024-05-09T17:28:10.996Z,15.80
2024-05-09T17:30:40.779Z,15.66
2024-05-09T17:33:11.326Z,15.78
2024-05-09T17:35:40.619Z,15.66
2024-05-09T17:38:08.754Z,15.78
2024-05-09T17:40:38.313Z,15.56
2024-05-09T17:43:09.628Z,15.85
2024-05-09T17:45:41.747Z,15.93
2024-05-09T17:48:11.662Z,15.61
2024-05-09T17:50:41.224Z,15.62
2024-05-09T17:53:10.965Z,15.56
2024-05-09T17:55:40.547Z,15.52
2024-05-09T17:58:08.570Z,15.36
2024-05-09T18:00:40.140Z,15.38
2024-05-09T18:03:13.971Z,15.70
2024-05-09T18:05:43.995Z,15.85
2024-05-09T18:08:13.358Z,15.45
2024-05-09T18:10:41.826Z,15.41
2024-05-09T18:13:11.074Z,15.38
2024-05-09T18:15:39.896Z,15.43
2024-05-09T18:18:09.182Z,15.32
2024-05-09T18:20:42.763Z,15.35
2024-05-09T18:23:14.846Z,15.33
2024-05-09T18:25:44.052Z,15.34
2024-05-09T18:28:11.945Z,15.28
2024-05-09T18:30:40.504Z,14.98
2024-05-09T18:33:10.253Z,14.96
2024-05-09T18:35:38.706Z,14.93
2024-05-09T18:38:06.615Z,14.96
2024-05-09T18:40:37.162Z,14.89
2024-05-09T18:43:08.194Z,14.62
2024-05-09T18:45:37.977Z,14.62
2024-05-09T18:48:08.409Z,14.80
2024-05-09T18:50:39.624Z,14.48
2024-05-09T18:53:11.384Z,14.58
2024-05-09T18:55:41.564Z,14.33
2024-05-09T18:58:09.729Z,14.47
2024-05-09T19:00:40.057Z,14.22
2024-05-09T19:03:13.044Z,14.39
2024-05-09T19:05:43.956Z,14.04
2024-05-09T19:08:13.367Z,14.02
2024-05-09T19:10:41.642Z,13.97
2024-05-09T19:13:12.715Z,13.93
2024-05-09T19:15:43.230Z,13.89
2024-05-09T19:18:12.720Z,13.88
2024-05-09T19:20:41.413Z,13.92
2024-05-09T19:23:09.081Z,14.09
2024-05-09T19:25:37.003Z,13.83
2024-05-09T19:28:05.630Z,13.72
2024-05-09T19:30:40.294Z,13.60
2024-05-09T19:33:13.033Z,13.59
2024-05-09T19:35:42.783Z,13.65
2024-05-09T19:38:10.909Z,13.56
2024-05-09T19:40:39.061Z,13.55
2024-05-09T19:43:07.447Z,13.30
2024-05-09T19:45:36.355Z,13.39
2024-05-09T19:48:06.017Z,13.09
2024-05-09T19:50:41.531Z,13.20
2024-05-09T19:53:13.180Z,13.09
2024-05-09T19:55:41.713Z,12.97
2024-05-09T19:58:10.100Z,13.29
2024-05-09T20:00:41.047Z,13.09
2024-05-09T20:03:12.049Z,12.86
2024-05-09T20:05:42.281Z,12.94
2024-05-09T20:08:10.483Z,12.97
2024-05-09T20:10:39.122Z,12.99
2024-05-09T20:13:08.455Z,12.72
2024-05-09T20:15:37.946Z,12.85
2024-05-09T20:18:07.085Z,12.62
2024-05-09T20:20:39.670Z,12.58
2024-05-09T20:23:13.605Z,12.57
2024-05-09T20:25:41.913Z,12.65
2024-05-09T20:28:10.773Z,12.54
2024-05-09T20:30:39.285Z,12.43
2024-05-09T20:33:08.421Z,12.72
2024-05-09T20:35:37.609Z,12.50
2024-05-09T20:38:05.951Z,12.69
2024-05-09T20:40:37.640Z,12.51
2024-05-09T20:43:10.860Z,12.69
2024-05-09T20:45:40.055Z,12.69
2024-05-09T20:48:09.078Z,12.43
2024-05-09T20:50:40.716Z,12.54
2024-05-09T20:53:11.750Z,12.71
2024-05-09T20:55:40.783Z,12.29
2024-05-09T20:58:09.694Z,12.48
2024-05-09T21:00:41.706Z,12.29
2024-05-09T21:03:13.461Z,12.51
2024-05-09T21:05:42.494Z,12.28
2024-05-09T21:08:10.692Z,12.35
2024-05-09T21:10:39.095Z,12.20
2024-05-09T21:13:07.682Z,12.05
2024-05-09T21:15:36.107Z,11.83
2024-05-09T21:18:05.006Z,11.88
2024-05-09T21:20:35.123Z,11.79
2024-05-09T21:23:03.815Z,12.00
2024-05-09T21:25:31.852Z,12.08
2024-05-09T21:28:00.473Z,12.11
2024-05-09T21:30:38.377Z,12.27
2024-05-09T21:33:11.641Z,12.14
2024-05-09T21:35:41.378Z,12.00
2024-05-09T21:38:09.429Z,11.66
2024-05-09T21:40:38.305Z,11.91
2024-05-09T21:43:07.314Z,11.97
2024-05-09T21:45:36.814Z,11.63
2024-05-09T21:48:05.681Z,11.86
2024-05-09T21:50:39.831Z,11.35
2024-05-09T21:53:13.588Z,11.43
2024-05-09T21:55:42.672Z,11.33
2024-05-09T21:58:11.515Z,11.24
2024-05-09T22:00:40.917Z,11.39
2024-05-09T22:03:10.495Z,11.27
2024-05-09T22:05:42.361Z,10.94
2024-05-09T22:08:11.144Z,11.19
2024-05-09T22:10:39.253Z,10.83
2024-05-09T22:13:08.543Z,10.86
2024-05-09T22:15:38.486Z,10.99
2024-05-09T22:18:08.961Z,10.84
2024-05-09T22:20:44.639Z,10.82
2024-05-09T22:23:14.683Z,10.69
2024-05-09T22:25:42.662Z,10.66
2024-05-09T22:28:10.845Z,10.73
2024-05-09T22:30:40.145Z,10.57
2024-05-09T22:33:10.126Z,10.78
2024-05-09T22:35:40.591Z,10.56
2024-05-09T22:38:09.183Z,10.46
2024-05-09T22:40:45.624Z,10.51
2024-05-09T22:43:21.385Z,10.43
2024-05-09T22:45:51.482Z,10.17
2024-05-09T22:48:19.935Z,10.21
2024-05-09T22:50:47.952Z,10.55
2024-05-09T22:53:15.756Z,10.40
2024-05-09T22:55:43.799Z,10.37
2024-05-09T22:58:11.696Z,10.35
2024-05-09T23:00:40.232Z,10.27
2024-05-09T23:03:08.364Z,10.05
2024-05-09T23:05:36.285Z,10.48
2024-05-09T23:08:04.607Z,10.18
2024-05-09T23:10:36.567Z,10.06
2024-05-09T23:13:07.379Z,10.13
2024-05-09T23:15:36.943Z,10.27
2024-05-09T23:18:05.655Z,10.09
2024-05-09T23:20:38.142Z,10.31
2024-05-09T23:23:08.357Z,10.13
2024-05-09T23:25:37.090Z,10.02
2024-05-09T23:28:05.583Z,9.88
2024-05-09T23:30:38.352Z,9.90
2024-05-09T23:33:12.877Z,10.09
2024-05-09T23:35:41.726Z,9.89
2024-05-09T23:38:09.576Z,9.71
2024-05-09T23:40:40.269Z,9.86
2024-05-09T23:43:10.750Z,9.69
2024-05-09T23:45:39.386Z,9.43
2024-05-09T23:48:07.579Z,9.73
2024-05-09T23:50:38.269Z,9.65
2024-05-09T23:53:09.422Z,9.66
2024-05-09T23:55:38.561Z,9.57
2024-05-09T23:58:07.520Z,9.62
